Terminal Aerodrome Forecast
Issued by NWS

Home | Current Version | Previous Version | Text Only | Print | Product List | Glossary On
Versions: 1 2 3 4 5 6 7 8 9 10 11 12 13 14 15
000
FTUS46 KOTX 261601 AAA
TAFMWH
TAF AMD
KMWH 261601Z 2616/2712 16005KT 1SM -SN BR BKN003 OVC017
     FM262000 02005KT 5SM -SHSN SCT003 BKN015 OVC040
     FM270000 30005KT P6SM VCSH SCT020 OVC040=

USA.gov is the U.S. government's official web portal to all federal, state and local government web resources and services.